createdAt,value
2022-11-22T00:00:08.903Z,1.65
2022-11-22T00:02:35.382Z,1.63
2022-11-22T00:05:01.834Z,1.59
2022-11-22T00:07:28.258Z,1.57
2022-11-22T00:09:56.059Z,1.57
2022-11-22T00:12:22.422Z,1.55
2022-11-22T00:14:52.536Z,1.61
2022-11-22T00:17:21.871Z,1.57
2022-11-22T00:19:48.259Z,1.42
2022-11-22T00:22:14.605Z,1.49
2022-11-22T00:24:40.994Z,1.40
2022-11-22T00:27:08.736Z,1.33
2022-11-22T00:29:35.136Z,1.34
2022-11-22T00:32:01.480Z,1.47
2022-11-22T00:34:27.874Z,1.47
2022-11-22T00:36:54.235Z,1.41
2022-11-22T00:39:20.597Z,1.19
2022-11-22T00:41:46.982Z,1.22
2022-11-22T00:44:14.727Z,1.07
2022-11-22T00:46:41.123Z,0.89
2022-11-22T00:49:07.547Z,0.91
2022-11-22T00:51:33.938Z,0.91
2022-11-22T00:54:00.298Z,0.88
2022-11-22T00:56:26.687Z,0.98
2022-11-22T00:58:53.043Z,0.99
2022-11-22T01:01:21.055Z,0.90
2022-11-22T01:03:47.466Z,0.84
2022-11-22T01:06:13.861Z,0.83
2022-11-22T01:08:40.214Z,0.99
2022-11-22T01:11:06.614Z,0.93
2022-11-22T01:13:33.032Z,0.99
2022-11-22T01:16:00.469Z,0.88
2022-11-22T01:18:28.244Z,0.86
2022-11-22T01:20:55.005Z,0.82
2022-11-22T01:23:21.362Z,0.97
2022-11-22T01:25:47.751Z,0.98
2022-11-22T01:28:14.147Z,0.92
2022-11-22T01:30:40.976Z,0.90
2022-11-22T01:33:07.615Z,0.93
2022-11-22T01:35:35.417Z,0.83
2022-11-22T01:38:01.801Z,0.92
2022-11-22T01:40:28.230Z,0.85
2022-11-22T01:42:55.595Z,0.76
2022-11-22T01:45:40.618Z,0.86
2022-11-22T01:48:12.970Z,0.71
2022-11-22T01:50:43.036Z,0.75
2022-11-22T01:53:10.709Z,0.68
2022-11-22T01:55:37.268Z,0.64
2022-11-22T01:58:04.040Z,0.72
2022-11-22T02:00:30.391Z,0.95
2022-11-22T02:02:58.561Z,1.10
2022-11-22T02:05:27.137Z,1.12
2022-11-22T02:07:58.285Z,0.94
2022-11-22T02:10:26.401Z,0.84
2022-11-22T02:12:53.346Z,0.70
2022-11-22T02:15:19.734Z,0.73
2022-11-22T02:17:46.145Z,0.79
2022-11-22T02:20:12.866Z,0.70
2022-11-22T02:22:43.321Z,0.67
2022-11-22T02:25:15.606Z,0.48
2022-11-22T02:27:43.540Z,0.44
2022-11-22T02:30:10.391Z,0.49
2022-11-22T02:32:36.917Z,0.49
2022-11-22T02:35:16.310Z,0.59
2022-11-22T02:37:42.950Z,0.71
2022-11-22T02:40:13.600Z,0.70
2022-11-22T02:42:40.355Z,0.71
2022-11-22T02:45:08.613Z,0.60
2022-11-22T02:47:34.969Z,0.51
2022-11-22T02:50:01.337Z,0.51
2022-11-22T02:52:27.724Z,0.66
2022-11-22T02:54:54.076Z,0.62
2022-11-22T02:57:20.470Z,0.60
2022-11-22T02:59:46.821Z,0.61
2022-11-22T03:02:14.794Z,0.51
2022-11-22T03:04:41.146Z,0.56
2022-11-22T03:07:07.842Z,0.51
2022-11-22T03:09:34.294Z,0.57
2022-11-22T03:12:00.692Z,0.62
2022-11-22T03:14:27.098Z,0.58
2022-11-22T03:16:53.486Z,0.62
2022-11-22T03:19:21.525Z,0.60
2022-11-22T03:21:47.961Z,0.68
2022-11-22T03:24:14.530Z,0.70
2022-11-22T03:26:41.293Z,0.83
2022-11-22T03:29:07.709Z,0.92
2022-11-22T03:31:34.095Z,0.93
2022-11-22T03:34:00.507Z,1.22
2022-11-22T03:36:28.242Z,1.24
2022-11-22T03:38:54.617Z,1.50
2022-11-22T03:41:20.990Z,1.45
2022-11-22T03:43:47.379Z,1.60
2022-11-22T03:46:14.695Z,1.66
2022-11-22T03:48:41.108Z,1.78
2022-11-22T03:51:07.483Z,1.93
2022-11-22T03:53:35.214Z,1.91
2022-11-22T03:56:01.596Z,1.93
2022-11-22T03:58:28.019Z,1.95
2022-11-22T04:00:54.411Z,1.92
2022-11-22T04:03:20.782Z,2.08
2022-11-22T04:05:47.182Z,2.26
2022-11-22T04:08:13.569Z,2.23
2022-11-22T04:10:41.300Z,2.20
2022-11-22T04:13:07.760Z,2.28
2022-11-22T04:15:34.164Z,2.27
2022-11-22T04:18:00.569Z,2.30
2022-11-22T04:20:28.162Z,2.36
2022-11-22T04:22:58.138Z,2.33
2022-11-22T04:25:24.603Z,2.46
2022-11-22T04:27:52.423Z,2.42
2022-11-22T04:30:20.612Z,2.34
2022-11-22T04:32:47.565Z,2.29
2022-11-22T04:35:15.009Z,2.35
2022-11-22T04:37:41.865Z,2.53
2022-11-22T04:40:08.964Z,2.45
2022-11-22T04:42:35.321Z,2.41
2022-11-22T04:45:03.155Z,2.46
2022-11-22T04:47:29.688Z,2.39
2022-11-22T04:49:56.077Z,2.41
2022-11-22T04:52:22.426Z,2.44
2022-11-22T04:54:48.827Z,2.37
2022-11-22T04:57:15.286Z,2.46
2022-11-22T04:59:41.668Z,2.54
2022-11-22T05:02:09.395Z,2.62
2022-11-22T05:04:35.920Z,2.62
2022-11-22T05:07:02.335Z,2.59
2022-11-22T05:09:29.073Z,2.51
2022-11-22T05:11:55.617Z,2.61
2022-11-22T05:14:21.990Z,2.60
2022-11-22T05:16:48.377Z,2.59
2022-11-22T05:19:16.117Z,2.60
2022-11-22T05:21:42.450Z,2.84
2022-11-22T05:24:09.131Z,2.71
2022-11-22T05:26:36.050Z,2.69
2022-11-22T05:29:04.233Z,2.71
2022-11-22T05:31:32.766Z,2.77
2022-11-22T05:33:59.678Z,2.70
2022-11-22T05:36:27.704Z,2.64
2022-11-22T05:38:54.694Z,2.61
2022-11-22T05:41:21.071Z,2.56
2022-11-22T05:43:47.456Z,2.53
2022-11-22T05:46:18.232Z,2.50
2022-11-22T05:48:47.837Z,2.43
2022-11-22T05:51:14.913Z,2.57
2022-11-22T05:53:43.049Z,2.57
2022-11-22T05:56:09.919Z,2.61
2022-11-22T05:58:36.280Z,2.61
2022-11-22T06:01:03.887Z,2.59
2022-11-22T06:03:30.371Z,2.48
2022-11-22T06:05:56.760Z,2.54
2022-11-22T06:08:23.094Z,2.55
2022-11-22T06:10:50.831Z,2.57
2022-11-22T06:13:17.282Z,2.72
2022-11-22T06:15:43.663Z,2.66
2022-11-22T06:18:10.016Z,2.77
2022-11-22T06:20:36.426Z,3.01
2022-11-22T06:23:02.843Z,3.00
2022-11-22T06:25:29.225Z,2.98
2022-11-22T06:27:59.408Z,3.12
2022-11-22T06:30:25.824Z,3.10
2022-11-22T06:32:52.163Z,2.94
2022-11-22T06:35:18.557Z,2.98
2022-11-22T06:37:44.901Z,2.94
2022-11-22T06:40:11.834Z,2.89
2022-11-22T06:42:38.206Z,2.95
2022-11-22T06:45:06.739Z,3.06
2022-11-22T06:47:33.237Z,2.99
2022-11-22T06:49:59.610Z,2.92
2022-11-22T06:52:25.958Z,2.91
2022-11-22T06:54:52.368Z,2.89
2022-11-22T06:57:18.723Z,3.07
2022-11-22T06:59:45.076Z,3.11
2022-11-22T07:02:12.821Z,3.06
2022-11-22T07:04:51.105Z,3.02
2022-11-22T07:07:25.588Z,3.29
2022-11-22T07:09:56.252Z,3.31
2022-11-22T07:12:23.022Z,3.27
2022-11-22T07:14:49.361Z,3.40
2022-11-22T07:17:17.121Z,3.43
2022-11-22T07:19:43.481Z,3.30
2022-11-22T07:22:09.863Z,3.27
2022-11-22T07:24:36.207Z,3.18
2022-11-22T07:27:02.590Z,3.26
2022-11-22T07:29:29.176Z,3.31
2022-11-22T07:31:55.646Z,3.26
2022-11-22T07:34:23.347Z,3.22
2022-11-22T07:36:53.113Z,3.25
2022-11-22T07:39:22.187Z,3.38
2022-11-22T07:41:48.571Z,3.48
2022-11-22T07:44:14.944Z,3.62
2022-11-22T07:46:41.366Z,3.64
2022-11-22T07:49:09.065Z,3.65
2022-11-22T07:51:36.799Z,3.46
2022-11-22T07:54:03.158Z,3.58
2022-11-22T07:56:29.544Z,3.71
2022-11-22T07:58:55.895Z,3.78
2022-11-22T08:01:22.314Z,3.91
2022-11-22T08:03:48.713Z,4.02
2022-11-22T08:06:15.613Z,4.08
2022-11-22T08:08:44.081Z,4.00
2022-11-22T08:11:10.934Z,4.10
2022-11-22T08:13:37.761Z,4.06
2022-11-22T08:16:06.079Z,4.05
2022-11-22T08:18:32.908Z,4.01
2022-11-22T08:21:03.046Z,4.15
2022-11-22T08:23:29.432Z,4.19
2022-11-22T08:25:58.655Z,4.36
2022-11-22T08:28:25.064Z,4.43
2022-11-22T08:30:51.523Z,4.54
2022-11-22T08:33:17.939Z,4.67
2022-11-22T08:35:44.279Z,4.78
2022-11-22T08:38:10.629Z,4.77
2022-11-22T08:40:40.992Z,4.85
2022-11-22T08:43:09.057Z,4.85
2022-11-22T08:45:35.450Z,4.81
2022-11-22T08:48:01.807Z,4.85
2022-11-22T08:50:28.164Z,4.90
2022-11-22T08:52:54.545Z,4.82
2022-11-22T08:55:20.890Z,4.74
2022-11-22T08:57:47.292Z,4.74
2022-11-22T09:00:15.786Z,4.66
2022-11-22T09:02:42.199Z,4.61
2022-11-22T09:05:08.872Z,4.56
2022-11-22T09:10:21.603Z,4.65
2022-11-22T09:12:48.024Z,4.68
2022-11-22T09:15:16.150Z,4.85
2022-11-22T09:17:42.961Z,4.85
2022-11-22T09:20:10.132Z,4.91
2022-11-22T09:22:36.967Z,5.01
2022-11-22T09:25:03.965Z,4.91
2022-11-22T09:27:30.405Z,4.80
2022-11-22T09:29:56.746Z,4.83
2022-11-22T09:32:26.206Z,4.86
2022-11-22T09:34:54.525Z,5.02
2022-11-22T09:37:20.912Z,5.08
2022-11-22T09:39:48.676Z,5.16
2022-11-22T09:42:30.020Z,5.25
2022-11-22T09:45:12.511Z,5.28
2022-11-22T09:47:46.808Z,5.25
2022-11-22T09:50:18.243Z,5.33
2022-11-22T09:52:49.227Z,5.18
2022-11-22T09:55:24.227Z,5.30
2022-11-22T09:57:55.372Z,5.40
2022-11-22T10:00:23.286Z,5.43
2022-11-22T10:03:00.942Z,5.37
2022-11-22T10:05:31.094Z,5.52
2022-11-22T10:08:01.102Z,5.63
2022-11-22T10:10:32.184Z,5.67
2022-11-22T10:13:01.706Z,5.66
2022-11-22T10:15:30.212Z,5.79
2022-11-22T10:18:01.065Z,5.88
2022-11-22T10:20:28.315Z,6.00
2022-11-22T10:22:55.285Z,5.92
2022-11-22T10:25:22.648Z,5.93
2022-11-22T10:27:56.266Z,6.02
2022-11-22T10:30:30.904Z,6.12
2022-11-22T10:33:04.413Z,6.23
2022-11-22T10:35:39.262Z,6.43
2022-11-22T10:38:14.346Z,6.50
2022-11-22T10:40:46.450Z,6.62
2022-11-22T10:43:24.474Z,6.65
2022-11-22T10:45:56.218Z,6.58
2022-11-22T10:48:29.552Z,6.49
2022-11-22T10:50:59.884Z,6.43
2022-11-22T10:53:34.162Z,6.47
2022-11-22T10:56:06.029Z,6.45
2022-11-22T10:58:38.126Z,6.42
2022-11-22T11:01:07.087Z,6.27
2022-11-22T11:03:37.350Z,6.33
2022-11-22T11:06:22.582Z,6.30
2022-11-22T11:09:47.909Z,6.38
2022-11-22T11:11:40.861Z,6.48
2022-11-22T11:14:10.544Z,6.35
2022-11-22T11:16:37.728Z,6.22
2022-11-22T11:19:13.923Z,6.27
2022-11-22T11:21:40.291Z,6.41
2022-11-22T11:24:11.914Z,6.62
2022-11-22T11:26:38.319Z,6.75
2022-11-22T11:29:19.550Z,6.90
2022-11-22T11:31:46.880Z,6.99
2022-11-22T11:34:20.605Z,6.94
2022-11-22T11:36:47.015Z,6.94
2022-11-22T11:39:19.963Z,7.04
2022-11-22T11:41:46.379Z,7.01
2022-11-22T11:44:26.636Z,7.02
2022-11-22T11:46:53.161Z,7.19
2022-11-22T11:49:24.777Z,7.27
2022-11-22T11:51:54.013Z,7.33
2022-11-22T11:54:21.460Z,7.38
2022-11-22T11:56:50.119Z,7.40
2022-11-22T11:59:17.938Z,7.34
2022-11-22T12:01:50.632Z,7.42
2022-11-22T12:04:20.633Z,7.54
2022-11-22T12:06:57.588Z,7.61
2022-11-22T12:09:31.687Z,7.68
2022-11-22T12:12:02.146Z,7.73
2022-11-22T12:14:48.840Z,7.77
2022-11-22T12:17:22.424Z,7.92
2022-11-22T12:19:52.776Z,7.85
2022-11-22T12:22:48.202Z,7.93
2022-11-22T12:25:32.046Z,7.79
2022-11-22T12:28:02.300Z,7.69
2022-11-22T12:30:28.875Z,7.53
2022-11-22T12:33:01.000Z,7.62
2022-11-22T12:35:27.447Z,7.66
2022-11-22T12:37:56.846Z,7.61
2022-11-22T12:40:24.996Z,7.77
2022-11-22T12:42:53.976Z,7.76
2022-11-22T12:45:24.532Z,7.72
2022-11-22T12:47:52.123Z,7.75
2022-11-22T12:50:24.832Z,7.72
2022-11-22T12:52:52.827Z,7.69
2022-11-22T12:55:22.783Z,7.61
2022-11-22T12:57:52.853Z,7.68
2022-11-22T13:00:20.411Z,7.53
2022-11-22T13:02:58.670Z,7.57
2022-11-22T13:05:27.406Z,7.59
2022-11-22T13:07:59.025Z,7.30
2022-11-22T13:10:33.843Z,7.23
2022-11-22T13:13:01.232Z,7.20
2022-11-22T13:15:28.712Z,7.26
2022-11-22T13:17:55.331Z,6.97
2022-11-22T13:20:23.597Z,6.91
2022-11-22T13:22:57.050Z,6.87
2022-11-22T13:25:36.224Z,7.13
2022-11-22T13:28:05.556Z,7.31
2022-11-22T13:30:33.532Z,7.29
2022-11-22T13:33:00.698Z,7.39
2022-11-22T13:35:29.087Z,7.42
2022-11-22T13:37:56.769Z,7.56
2022-11-22T13:40:25.107Z,7.56
2022-11-22T13:43:13.731Z,7.45
2022-11-22T13:45:47.878Z,7.55
2022-11-22T13:48:14.405Z,7.48
2022-11-22T13:50:55.651Z,7.34
2022-11-22T13:53:23.806Z,7.21
2022-11-22T13:55:50.663Z,7.08
2022-11-22T13:58:51.391Z,7.08
2022-11-22T14:01:52.033Z,7.04
2022-11-22T14:04:20.142Z,7.00
2022-11-22T14:06:47.743Z,6.96
2022-11-22T14:09:14.977Z,6.92
2022-11-22T14:11:45.517Z,6.72
2022-11-22T14:14:15.231Z,6.76
2022-11-22T14:16:48.971Z,6.76
2022-11-22T14:19:23.030Z,6.74
2022-11-22T14:22:05.632Z,6.65
2022-11-22T14:24:38.604Z,6.46
2022-11-22T14:27:10.887Z,6.38
2022-11-22T14:29:53.465Z,6.18
2022-11-22T14:32:22.680Z,6.21
2022-11-22T14:35:07.661Z,6.17
2022-11-22T14:37:35.301Z,6.04
2022-11-22T14:40:16.523Z,6.02
2022-11-22T14:43:00.791Z,6.02
2022-11-22T14:45:29.435Z,5.98
2022-11-22T14:48:01.662Z,6.07
2022-11-22T14:50:29.152Z,5.94
2022-11-22T14:52:57.152Z,6.12
2022-11-22T14:55:26.077Z,5.89
2022-11-22T14:57:58.554Z,6.03
2022-11-22T15:00:25.495Z,5.87
2022-11-22T15:03:10.750Z,5.83
2022-11-22T15:09:14.903Z,5.40
2022-11-22T15:09:23.398Z,5.60
2022-11-22T15:11:44.325Z,5.62
2022-11-22T15:14:19.751Z,5.57
2022-11-22T15:59:07.767Z,5.13
2022-11-22T16:01:37.721Z,5.03
2022-11-22T16:04:04.479Z,5.01
2022-11-22T16:06:31.517Z,4.95
2022-11-22T16:08:59.075Z,4.91
2022-11-22T16:11:29.223Z,4.82
2022-11-22T16:13:55.743Z,4.79
2022-11-22T16:16:26.397Z,4.78
2022-11-22T16:18:52.785Z,4.76
2022-11-22T16:21:20.320Z,4.81
2022-11-22T16:23:46.901Z,4.90
2022-11-22T16:26:19.154Z,4.98
2022-11-22T16:28:47.450Z,4.87
2022-11-22T16:31:17.677Z,4.72
2022-11-22T16:33:44.361Z,4.70
2022-11-22T16:36:12.101Z,4.79
2022-11-22T16:38:38.571Z,4.84
2022-11-22T16:41:06.577Z,4.72
2022-11-22T16:43:34.231Z,4.78
2022-11-22T16:46:02.085Z,4.67
2022-11-22T16:48:33.226Z,4.56
2022-11-22T16:51:02.455Z,4.52
2022-11-22T16:53:34.098Z,4.52
2022-11-22T16:56:00.442Z,4.51
2022-11-22T16:58:28.269Z,4.46
2022-11-22T17:00:55.448Z,4.45
2022-11-22T17:03:25.036Z,4.44
2022-11-22T17:05:51.456Z,4.42
2022-11-22T17:08:18.795Z,4.40
2022-11-22T17:10:46.013Z,4.55
2022-11-22T17:13:20.200Z,4.51
2022-11-22T17:15:46.814Z,4.56
2022-11-22T17:18:13.473Z,4.56
2022-11-22T17:20:41.214Z,4.46
2022-11-22T17:23:12.119Z,4.46
2022-11-22T17:25:38.488Z,4.41
2022-11-22T17:28:04.878Z,4.37
2022-11-22T17:30:31.234Z,4.58
2022-11-22T17:32:57.568Z,4.48
2022-11-22T17:35:23.953Z,4.46
2022-11-22T17:37:54.132Z,4.42
2022-11-22T17:40:20.579Z,4.44
2022-11-22T17:42:46.905Z,4.34
2022-11-22T17:45:13.380Z,4.29
2022-11-22T17:47:39.742Z,4.31
2022-11-22T17:50:06.634Z,4.52
2022-11-22T17:52:33.048Z,4.70
2022-11-22T17:55:05.554Z,4.54
2022-11-22T17:57:32.706Z,4.48
2022-11-22T17:59:59.112Z,4.53
2022-11-22T18:02:25.519Z,4.59
2022-11-22T18:04:51.869Z,4.70
2022-11-22T18:07:18.325Z,4.68
2022-11-22T18:09:44.750Z,4.47
2022-11-22T18:12:12.452Z,4.43
2022-11-22T18:14:38.828Z,4.46
2022-11-22T18:17:05.213Z,4.52
2022-11-22T18:19:31.838Z,4.65
2022-11-22T18:21:58.288Z,4.67
2022-11-22T18:24:24.650Z,4.61
2022-11-22T18:26:50.974Z,4.59
2022-11-22T18:32:05.226Z,4.42
2022-11-22T18:34:31.597Z,4.57
2022-11-22T18:37:01.825Z,4.53
2022-11-22T18:39:29.973Z,4.43
2022-11-22T18:41:56.670Z,4.53
2022-11-22T18:44:24.603Z,4.51
2022-11-22T18:46:50.975Z,4.37
2022-11-22T18:49:17.463Z,4.42
2022-11-22T18:51:43.866Z,4.50
2022-11-22T18:54:10.274Z,4.39
2022-11-22T18:56:36.997Z,4.37
2022-11-22T18:59:03.621Z,4.43
2022-11-22T19:01:31.461Z,4.32
2022-11-22T19:03:57.860Z,4.33
2022-11-22T19:06:24.209Z,4.24
2022-11-22T19:08:50.559Z,4.18
2022-11-22T19:11:16.911Z,4.18
2022-11-22T19:13:44.077Z,4.19
2022-11-22T19:16:11.432Z,4.22
2022-11-22T19:18:42.915Z,4.29
2022-11-22T19:21:10.297Z,4.17
2022-11-22T19:23:36.971Z,4.27
2022-11-22T19:26:03.791Z,4.24
2022-11-22T19:28:30.364Z,4.15
2022-11-22T19:31:00.148Z,4.01
2022-11-22T19:33:26.513Z,3.96
2022-11-22T19:35:57.981Z,3.87
2022-11-22T19:38:24.397Z,3.87
2022-11-22T19:40:50.748Z,3.82
2022-11-22T19:43:17.089Z,3.86
2022-11-22T19:45:43.885Z,3.81
2022-11-22T19:48:10.233Z,3.60
2022-11-22T19:50:37.580Z,3.57
2022-11-22T19:53:05.616Z,3.47
2022-11-22T19:55:33.520Z,3.42
2022-11-22T19:58:00.065Z,3.40
2022-11-22T20:00:26.433Z,3.40
2022-11-22T20:02:52.898Z,3.34
2022-11-22T20:05:19.246Z,3.26
2022-11-22T20:07:45.641Z,3.23
2022-11-22T20:10:13.493Z,3.35
2022-11-22T20:12:39.861Z,3.29
2022-11-22T20:15:06.826Z,3.35
2022-11-22T20:17:33.188Z,3.33
2022-11-22T20:19:59.522Z,3.38
2022-11-22T20:22:25.913Z,3.29
2022-11-22T20:24:52.263Z,3.38
2022-11-22T20:27:24.531Z,3.42
2022-11-22T20:29:51.229Z,3.37
2022-11-22T20:32:17.573Z,3.32
2022-11-22T20:34:43.909Z,3.32
2022-11-22T20:37:10.253Z,3.43
2022-11-22T20:39:36.641Z,3.37
2022-11-22T20:42:32.385Z,3.31
2022-11-22T20:44:50.908Z,3.40
2022-11-22T20:47:17.268Z,3.38
2022-11-22T20:49:45.698Z,3.21
2022-11-22T20:52:12.216Z,3.12
2022-11-22T20:54:38.552Z,3.11
2022-11-22T20:57:04.909Z,3.02
2022-11-22T20:59:31.246Z,3.00
2022-11-22T21:01:58.983Z,3.06
2022-11-22T21:04:25.312Z,2.99
2022-11-22T21:06:51.676Z,2.87
2022-11-22T21:09:17.990Z,2.85
2022-11-22T21:11:44.389Z,2.76
2022-11-22T21:14:11.154Z,2.75
2022-11-22T21:16:37.500Z,2.85
2022-11-22T21:19:05.352Z,2.98
2022-11-22T21:21:32.743Z,2.84
2022-11-22T21:23:59.960Z,2.79
2022-11-22T21:26:26.620Z,2.82
2022-11-22T21:28:53.029Z,2.79
2022-11-22T21:31:19.910Z,2.69
2022-11-22T21:33:46.496Z,2.82
2022-11-22T21:36:14.198Z,2.74
2022-11-22T21:38:40.637Z,2.76
2022-11-22T21:41:32.205Z,2.75
2022-11-22T21:43:54.451Z,2.88
2022-11-22T21:46:20.825Z,2.70
2022-11-22T21:48:48.225Z,2.84
2022-11-22T21:51:15.925Z,2.96
2022-11-22T21:53:42.261Z,2.78
2022-11-22T21:56:09.133Z,2.69
2022-11-22T21:58:35.494Z,2.74
2022-11-22T22:01:01.885Z,2.89
2022-11-22T22:03:28.611Z,2.85
2022-11-22T22:05:55.021Z,2.77
2022-11-22T22:08:23.093Z,2.78
2022-11-22T22:10:49.925Z,2.75
2022-11-22T22:13:16.368Z,2.76
2022-11-22T22:15:42.700Z,2.81
2022-11-22T22:18:09.076Z,2.81
2022-11-22T22:20:35.418Z,2.96
2022-11-22T22:23:01.777Z,3.03
2022-11-22T22:25:29.643Z,2.93
2022-11-22T22:27:56.139Z,2.88
2022-11-22T22:30:22.483Z,2.96
2022-11-22T22:32:48.833Z,3.07
2022-11-22T22:35:15.246Z,3.04
2022-11-22T22:37:41.588Z,3.15
2022-11-22T22:40:08.035Z,3.14
2022-11-22T22:42:35.883Z,3.21
2022-11-22T22:45:02.227Z,3.22
2022-11-22T22:47:29.405Z,3.26
2022-11-22T22:49:55.719Z,3.17
2022-11-22T22:52:22.208Z,3.20
2022-11-22T22:54:48.539Z,3.22
2022-11-22T22:57:14.873Z,3.26
2022-11-22T22:59:42.590Z,3.36
2022-11-22T23:02:08.965Z,3.43
2022-11-22T23:04:35.393Z,3.41
2022-11-22T23:07:01.715Z,3.38
2022-11-22T23:09:28.075Z,3.36
2022-11-22T23:11:54.402Z,3.41
2022-11-22T23:14:21.647Z,3.47
2022-11-22T23:16:53.206Z,3.53
2022-11-22T23:19:22.489Z,3.71
2022-11-22T23:21:48.875Z,3.83
2022-11-22T23:24:15.279Z,3.88
2022-11-22T23:26:41.698Z,3.98
2022-11-22T23:29:08.051Z,3.95
2022-11-22T23:31:34.496Z,4.06
2022-11-22T23:34:02.294Z,4.14
2022-11-22T23:36:29.141Z,4.01
2022-11-22T23:38:55.764Z,3.96
2022-11-22T23:41:22.983Z,3.92
2022-11-22T23:43:52.114Z,4.12
2022-11-22T23:46:18.503Z,4.17
2022-11-22T23:48:45.240Z,4.23
2022-11-22T23:51:13.716Z,4.25
2022-11-22T23:53:40.081Z,4.10
2022-11-22T23:56:07.513Z,4.04
2022-11-22T23:58:34.275Z,4.03
